sensor_id;sensor_type;location;lat;lon;timestamp;P1;durP1;ratioP1;P2;durP2;ratioP2
69386;SDS011;56575;48.942;8.404;2023-04-22T00:00:27;4.93;;;2.78;;
69386;SDS011;56575;48.942;8.404;2023-04-22T00:02:53;4.47;;;2.70;;
69386;SDS011;56575;48.942;8.404;2023-04-22T00:05:20;5.45;;;2.72;;
69386;SDS011;56575;48.942;8.404;2023-04-22T00:07:45;4.63;;;2.45;;
69386;SDS011;56575;48.942;8.404;2023-04-22T00:10:11;3.60;;;2.40;;
69386;SDS011;56575;48.942;8.404;2023-04-22T00:12:37;5.40;;;2.50;;
69386;SDS011;56575;48.942;8.404;2023-04-22T00:15:02;4.10;;;2.60;;
69386;SDS011;56575;48.942;8.404;2023-04-22T00:17:28;3.30;;;2.13;;
69386;SDS011;56575;48.942;8.404;2023-04-22T00:19:54;3.80;;;2.40;;
69386;SDS011;56575;48.942;8.404;2023-04-22T00:22:20;4.07;;;2.25;;
69386;SDS011;56575;48.942;8.404;2023-04-22T00:24:45;3.60;;;2.20;;
69386;SDS011;56575;48.942;8.404;2023-04-22T00:27:11;4.57;;;2.50;;
69386;SDS011;56575;48.942;8.404;2023-04-22T00:29:36;6.43;;;2.60;;
69386;SDS011;56575;48.942;8.404;2023-04-22T00:32:01;3.73;;;2.23;;
69386;SDS011;56575;48.942;8.404;2023-04-22T00:34:27;3.47;;;2.60;;
69386;SDS011;56575;48.942;8.404;2023-04-22T00:36:52;5.07;;;2.43;;
69386;SDS011;56575;48.942;8.404;2023-04-22T00:39:18;4.77;;;2.30;;
69386;SDS011;56575;48.942;8.404;2023-04-22T00:41:43;4.18;;;2.38;;
69386;SDS011;56575;48.942;8.404;2023-04-22T00:44:09;4.60;;;2.47;;
69386;SDS011;56575;48.942;8.404;2023-04-22T00:46:35;4.05;;;2.40;;
69386;SDS011;56575;48.942;8.404;2023-04-22T00:49:02;5.20;;;2.33;;
69386;SDS011;56575;48.942;8.404;2023-04-22T00:51:28;4.75;;;2.70;;
69386;SDS011;56575;48.942;8.404;2023-04-22T00:53:53;6.63;;;2.37;;
69386;SDS011;56575;48.942;8.404;2023-04-22T00:56:19;5.60;;;2.47;;
69386;SDS011;56575;48.942;8.404;2023-04-22T00:58:45;3.33;;;2.13;;
69386;SDS011;56575;48.942;8.404;2023-04-22T01:01:11;5.90;;;2.63;;
69386;SDS011;56575;48.942;8.404;2023-04-22T01:03:37;4.03;;;2.50;;
69386;SDS011;56575;48.942;8.404;2023-04-22T01:06:03;4.05;;;2.35;;
69386;SDS011;56575;48.942;8.404;2023-04-22T01:08:29;3.87;;;2.63;;
69386;SDS011;56575;48.942;8.404;2023-04-22T01:10:55;5.03;;;2.60;;
69386;SDS011;56575;48.942;8.404;2023-04-22T01:13:21;4.25;;;2.53;;
69386;SDS011;56575;48.942;8.404;2023-04-22T01:15:46;5.17;;;2.50;;
69386;SDS011;56575;48.942;8.404;2023-04-22T01:18:12;5.78;;;3.10;;
69386;SDS011;56575;48.942;8.404;2023-04-22T01:20:38;5.70;;;2.90;;
69386;SDS011;56575;48.942;8.404;2023-04-22T01:23:04;4.30;;;2.60;;
69386;SDS011;56575;48.942;8.404;2023-04-22T01:25:40;4.67;;;2.77;;
69386;SDS011;56575;48.942;8.404;2023-04-22T01:28:05;5.07;;;2.80;;
69386;SDS011;56575;48.942;8.404;2023-04-22T01:30:31;5.83;;;2.90;;
69386;SDS011;56575;48.942;8.404;2023-04-22T01:32:57;5.30;;;2.90;;
69386;SDS011;56575;48.942;8.404;2023-04-22T01:35:23;4.20;;;2.50;;
69386;SDS011;56575;48.942;8.404;2023-04-22T01:37:48;5.57;;;3.00;;
69386;SDS011;56575;48.942;8.404;2023-04-22T01:40:15;4.73;;;2.67;;
69386;SDS011;56575;48.942;8.404;2023-04-22T01:42:43;6.97;;;2.85;;
69386;SDS011;56575;48.942;8.404;2023-04-22T01:45:09;4.13;;;2.90;;
69386;SDS011;56575;48.942;8.404;2023-04-22T01:47:37;5.32;;;2.70;;
69386;SDS011;56575;48.942;8.404;2023-04-22T01:50:02;7.93;;;3.40;;
69386;SDS011;56575;48.942;8.404;2023-04-22T01:52:28;5.32;;;2.78;;
69386;SDS011;56575;48.942;8.404;2023-04-22T01:54:54;4.55;;;2.58;;
69386;SDS011;56575;48.942;8.404;2023-04-22T01:57:20;4.67;;;3.00;;
69386;SDS011;56575;48.942;8.404;2023-04-22T01:59:45;4.60;;;2.90;;
69386;SDS011;56575;48.942;8.404;2023-04-22T02:02:11;4.77;;;2.83;;
69386;SDS011;56575;48.942;8.404;2023-04-22T02:04:36;4.03;;;2.53;;
69386;SDS011;56575;48.942;8.404;2023-04-22T02:07:02;4.60;;;2.40;;
69386;SDS011;56575;48.942;8.404;2023-04-22T02:09:27;6.80;;;2.60;;
69386;SDS011;56575;48.942;8.404;2023-04-22T02:11:53;4.82;;;2.70;;
69386;SDS011;56575;48.942;8.404;2023-04-22T02:14:18;6.77;;;2.77;;
69386;SDS011;56575;48.942;8.404;2023-04-22T02:16:43;5.83;;;2.63;;
69386;SDS011;56575;48.942;8.404;2023-04-22T02:19:09;5.77;;;2.73;;
69386;SDS011;56575;48.942;8.404;2023-04-22T02:21:34;4.67;;;2.50;;
69386;SDS011;56575;48.942;8.404;2023-04-22T02:24:00;5.10;;;2.60;;
69386;SDS011;56575;48.942;8.404;2023-04-22T02:26:26;3.70;;;2.53;;
69386;SDS011;56575;48.942;8.404;2023-04-22T02:28:52;6.28;;;2.70;;
69386;SDS011;56575;48.942;8.404;2023-04-22T02:31:17;3.63;;;2.50;;
69386;SDS011;56575;48.942;8.404;2023-04-22T02:33:43;4.20;;;2.57;;
69386;SDS011;56575;48.942;8.404;2023-04-22T02:36:08;4.22;;;2.40;;
69386;SDS011;56575;48.942;8.404;2023-04-22T02:38:34;7.63;;;2.80;;
69386;SDS011;56575;48.942;8.404;2023-04-22T02:40:59;5.47;;;2.43;;
69386;SDS011;56575;48.942;8.404;2023-04-22T02:43:24;3.50;;;2.50;;
69386;SDS011;56575;48.942;8.404;2023-04-22T02:45:50;5.67;;;2.27;;
69386;SDS011;56575;48.942;8.404;2023-04-22T02:48:15;5.67;;;2.50;;
69386;SDS011;56575;48.942;8.404;2023-04-22T02:50:41;6.43;;;2.43;;
69386;SDS011;56575;48.942;8.404;2023-04-22T02:53:07;4.07;;;2.20;;
69386;SDS011;56575;48.942;8.404;2023-04-22T02:55:33;4.00;;;2.40;;
69386;SDS011;56575;48.942;8.404;2023-04-22T02:57:58;3.50;;;2.10;;
69386;SDS011;56575;48.942;8.404;2023-04-22T03:00:24;3.93;;;2.37;;
69386;SDS011;56575;48.942;8.404;2023-04-22T03:02:49;3.97;;;2.43;;
69386;SDS011;56575;48.942;8.404;2023-04-22T03:05:14;3.60;;;1.93;;
69386;SDS011;56575;48.942;8.404;2023-04-22T03:07:40;5.90;;;2.42;;
69386;SDS011;56575;48.942;8.404;2023-04-22T03:10:06;4.47;;;2.77;;
69386;SDS011;56575;48.942;8.404;2023-04-22T03:12:32;6.07;;;2.60;;
69386;SDS011;56575;48.942;8.404;2023-04-22T03:14:57;3.90;;;2.40;;
69386;SDS011;56575;48.942;8.404;2023-04-22T03:17:22;6.17;;;2.60;;
69386;SDS011;56575;48.942;8.404;2023-04-22T03:19:49;4.32;;;2.38;;
69386;SDS011;56575;48.942;8.404;2023-04-22T03:22:15;4.05;;;2.35;;
69386;SDS011;56575;48.942;8.404;2023-04-22T03:24:40;4.70;;;2.30;;
69386;SDS011;56575;48.942;8.404;2023-04-22T03:27:06;5.53;;;2.67;;
69386;SDS011;56575;48.942;8.404;2023-04-22T03:29:31;5.00;;;2.47;;
69386;SDS011;56575;48.942;8.404;2023-04-22T03:31:57;4.38;;;2.33;;
69386;SDS011;56575;48.942;8.404;2023-04-22T03:34:22;7.30;;;2.60;;
69386;SDS011;56575;48.942;8.404;2023-04-22T03:36:47;4.63;;;2.23;;
69386;SDS011;56575;48.942;8.404;2023-04-22T03:39:13;4.27;;;2.40;;
69386;SDS011;56575;48.942;8.404;2023-04-22T03:41:38;3.90;;;2.30;;
69386;SDS011;56575;48.942;8.404;2023-04-22T03:44:03;3.67;;;2.30;;
69386;SDS011;56575;48.942;8.404;2023-04-22T03:46:29;5.90;;;2.53;;
69386;SDS011;56575;48.942;8.404;2023-04-22T03:48:54;3.57;;;2.20;;
69386;SDS011;56575;48.942;8.404;2023-04-22T03:51:19;4.10;;;2.27;;
69386;SDS011;56575;48.942;8.404;2023-04-22T03:53:45;4.07;;;2.50;;
69386;SDS011;56575;48.942;8.404;2023-04-22T03:56:10;4.65;;;2.47;;
69386;SDS011;56575;48.942;8.404;2023-04-22T03:58:36;10.87;;;5.10;;
69386;SDS011;56575;48.942;8.404;2023-04-22T04:01:01;9.67;;;5.87;;
69386;SDS011;56575;48.942;8.404;2023-04-22T04:03:26;6.63;;;4.37;;
69386;SDS011;56575;48.942;8.404;2023-04-22T04:05:52;7.20;;;5.50;;
69386;SDS011;56575;48.942;8.404;2023-04-22T04:08:18;7.38;;;6.60;;
69386;SDS011;56575;48.942;8.404;2023-04-22T04:10:43;5.18;;;4.22;;
69386;SDS011;56575;48.942;8.404;2023-04-22T04:13:09;6.33;;;4.50;;
69386;SDS011;56575;48.942;8.404;2023-04-22T04:15:35;8.03;;;6.43;;
69386;SDS011;56575;48.942;8.404;2023-04-22T04:18:00;6.07;;;4.40;;
69386;SDS011;56575;48.942;8.404;2023-04-22T04:20:27;5.07;;;3.30;;
69386;SDS011;56575;48.942;8.404;2023-04-22T04:22:52;6.33;;;4.07;;
69386;SDS011;56575;48.942;8.404;2023-04-22T04:25:18;10.30;;;6.70;;
69386;SDS011;56575;48.942;8.404;2023-04-22T04:27:45;8.73;;;4.83;;
69386;SDS011;56575;48.942;8.404;2023-04-22T04:30:11;6.60;;;2.80;;
69386;SDS011;56575;48.942;8.404;2023-04-22T04:32:37;4.60;;;2.88;;
69386;SDS011;56575;48.942;8.404;2023-04-22T04:35:03;3.97;;;2.90;;
69386;SDS011;56575;48.942;8.404;2023-04-22T04:37:28;5.00;;;3.42;;
69386;SDS011;56575;48.942;8.404;2023-04-22T04:39:54;4.93;;;3.30;;
69386;SDS011;56575;48.942;8.404;2023-04-22T04:42:23;4.57;;;2.45;;
69386;SDS011;56575;48.942;8.404;2023-04-22T04:44:49;4.80;;;2.60;;
69386;SDS011;56575;48.942;8.404;2023-04-22T04:47:15;5.30;;;2.80;;
69386;SDS011;56575;48.942;8.404;2023-04-22T04:49:40;6.10;;;2.78;;
69386;SDS011;56575;48.942;8.404;2023-04-22T04:52:07;3.77;;;2.50;;
69386;SDS011;56575;48.942;8.404;2023-04-22T04:54:35;7.03;;;2.63;;
69386;SDS011;56575;48.942;8.404;2023-04-22T04:57:01;4.20;;;2.80;;
69386;SDS011;56575;48.942;8.404;2023-04-22T04:59:27;4.53;;;2.87;;
69386;SDS011;56575;48.942;8.404;2023-04-22T05:01:52;5.00;;;2.80;;
69386;SDS011;56575;48.942;8.404;2023-04-22T05:04:18;4.57;;;2.53;;
69386;SDS011;56575;48.942;8.404;2023-04-22T05:06:43;5.67;;;3.20;;
69386;SDS011;56575;48.942;8.404;2023-04-22T05:09:09;3.95;;;2.90;;
69386;SDS011;56575;48.942;8.404;2023-04-22T05:11:34;3.77;;;2.40;;
69386;SDS011;56575;48.942;8.404;2023-04-22T05:14:00;5.10;;;2.60;;
69386;SDS011;56575;48.942;8.404;2023-04-22T05:16:26;5.60;;;2.47;;
69386;SDS011;56575;48.942;8.404;2023-04-22T05:18:52;4.82;;;2.55;;
69386;SDS011;56575;48.942;8.404;2023-04-22T05:21:18;5.20;;;2.83;;
69386;SDS011;56575;48.942;8.404;2023-04-22T05:23:44;4.85;;;2.80;;
69386;SDS011;56575;48.942;8.404;2023-04-22T05:26:09;4.90;;;2.80;;
69386;SDS011;56575;48.942;8.404;2023-04-22T05:28:35;6.07;;;2.60;;
69386;SDS011;56575;48.942;8.404;2023-04-22T05:31:00;4.37;;;2.70;;
69386;SDS011;56575;48.942;8.404;2023-04-22T05:33:25;5.17;;;2.77;;
69386;SDS011;56575;48.942;8.404;2023-04-22T05:35:51;3.80;;;2.40;;
69386;SDS011;56575;48.942;8.404;2023-04-22T05:38:16;6.03;;;2.20;;
69386;SDS011;56575;48.942;8.404;2023-04-22T05:40:42;3.80;;;2.40;;
69386;SDS011;56575;48.942;8.404;2023-04-22T05:43:07;3.97;;;2.42;;
69386;SDS011;56575;48.942;8.404;2023-04-22T05:45:33;4.10;;;2.50;;
69386;SDS011;56575;48.942;8.404;2023-04-22T05:47:58;4.70;;;2.75;;
69386;SDS011;56575;48.942;8.404;2023-04-22T05:50:24;6.07;;;2.30;;
69386;SDS011;56575;48.942;8.404;2023-04-22T05:52:49;6.43;;;2.70;;
69386;SDS011;56575;48.942;8.404;2023-04-22T05:55:15;5.87;;;2.70;;
69386;SDS011;56575;48.942;8.404;2023-04-22T05:57:40;8.63;;;2.70;;
69386;SDS011;56575;48.942;8.404;2023-04-22T06:00:06;6.03;;;2.50;;
69386;SDS011;56575;48.942;8.404;2023-04-22T06:02:33;6.07;;;3.00;;
69386;SDS011;56575;48.942;8.404;2023-04-22T06:04:58;4.73;;;2.60;;
69386;SDS011;56575;48.942;8.404;2023-04-22T06:07:23;5.43;;;3.07;;
69386;SDS011;56575;48.942;8.404;2023-04-22T06:09:49;6.53;;;2.90;;
69386;SDS011;56575;48.942;8.404;2023-04-22T06:12:15;4.25;;;2.60;;
69386;SDS011;56575;48.942;8.404;2023-04-22T06:14:40;4.43;;;2.70;;
69386;SDS011;56575;48.942;8.404;2023-04-22T06:17:05;8.63;;;3.10;;
69386;SDS011;56575;48.942;8.404;2023-04-22T06:19:32;8.10;;;3.15;;
69386;SDS011;56575;48.942;8.404;2023-04-22T06:21:57;5.63;;;2.60;;
69386;SDS011;56575;48.942;8.404;2023-04-22T06:24:23;9.43;;;2.80;;
69386;SDS011;56575;48.942;8.404;2023-04-22T06:26:48;8.63;;;2.97;;
69386;SDS011;56575;48.942;8.404;2023-04-22T06:29:14;7.03;;;3.50;;
69386;SDS011;56575;48.942;8.404;2023-04-22T06:31:39;7.27;;;3.33;;
69386;SDS011;56575;48.942;8.404;2023-04-22T06:34:04;6.93;;;4.80;;
69386;SDS011;56575;48.942;8.404;2023-04-22T06:36:30;10.33;;;5.30;;
69386;SDS011;56575;48.942;8.404;2023-04-22T06:38:56;6.07;;;3.63;;
69386;SDS011;56575;48.942;8.404;2023-04-22T06:41:21;6.33;;;3.47;;
69386;SDS011;56575;48.942;8.404;2023-04-22T06:43:47;10.45;;;3.95;;
69386;SDS011;56575;48.942;8.404;2023-04-22T06:46:14;11.38;;;3.95;;
69386;SDS011;56575;48.942;8.404;2023-04-22T06:48:40;7.68;;;3.55;;
69386;SDS011;56575;48.942;8.404;2023-04-22T06:51:06;10.60;;;5.20;;
69386;SDS011;56575;48.942;8.404;2023-04-22T06:53:31;12.27;;;4.93;;
69386;SDS011;56575;48.942;8.404;2023-04-22T06:55:57;8.20;;;4.20;;
69386;SDS011;56575;48.942;8.404;2023-04-22T06:58:22;9.50;;;4.23;;
69386;SDS011;56575;48.942;8.404;2023-04-22T07:00:47;7.83;;;3.70;;
69386;SDS011;56575;48.942;8.404;2023-04-22T07:03:13;7.83;;;3.83;;
69386;SDS011;56575;48.942;8.404;2023-04-22T07:05:38;8.97;;;4.50;;
69386;SDS011;56575;48.942;8.404;2023-04-22T07:08:04;8.30;;;4.10;;
69386;SDS011;56575;48.942;8.404;2023-04-22T07:10:29;7.73;;;4.20;;
69386;SDS011;56575;48.942;8.404;2023-04-22T07:12:54;6.37;;;3.20;;
69386;SDS011;56575;48.942;8.404;2023-04-22T07:15:20;6.27;;;3.93;;
69386;SDS011;56575;48.942;8.404;2023-04-22T07:17:45;6.43;;;3.70;;
69386;SDS011;56575;48.942;8.404;2023-04-22T07:20:10;6.63;;;3.67;;
69386;SDS011;56575;48.942;8.404;2023-04-22T07:22:36;6.17;;;3.50;;
69386;SDS011;56575;48.942;8.404;2023-04-22T07:25:02;5.53;;;3.13;;
69386;SDS011;56575;48.942;8.404;2023-04-22T07:27:28;6.72;;;3.72;;
69386;SDS011;56575;48.942;8.404;2023-04-22T07:29:53;5.70;;;3.30;;
69386;SDS011;56575;48.942;8.404;2023-04-22T07:32:18;6.23;;;3.43;;
69386;SDS011;56575;48.942;8.404;2023-04-22T07:34:44;10.43;;;3.55;;
69386;SDS011;56575;48.942;8.404;2023-04-22T07:37:09;5.40;;;3.33;;
69386;SDS011;56575;48.942;8.404;2023-04-22T07:39:34;7.33;;;3.27;;
69386;SDS011;56575;48.942;8.404;2023-04-22T07:42:00;7.60;;;3.10;;
69386;SDS011;56575;48.942;8.404;2023-04-22T07:44:26;7.68;;;3.00;;
69386;SDS011;56575;48.942;8.404;2023-04-22T07:46:51;5.90;;;2.50;;
69386;SDS011;56575;48.942;8.404;2023-04-22T07:49:17;4.18;;;2.50;;
69386;SDS011;56575;48.942;8.404;2023-04-22T07:51:43;7.25;;;3.65;;
69386;SDS011;56575;48.942;8.404;2023-04-22T07:54:09;4.03;;;2.50;;
69386;SDS011;56575;48.942;8.404;2023-04-22T07:56:35;4.57;;;2.53;;
69386;SDS011;56575;48.942;8.404;2023-04-22T07:59:00;5.87;;;2.50;;
69386;SDS011;56575;48.942;8.404;2023-04-22T08:01:26;4.43;;;2.63;;
69386;SDS011;56575;48.942;8.404;2023-04-22T08:03:51;3.20;;;2.17;;
69386;SDS011;56575;48.942;8.404;2023-04-22T08:06:17;4.13;;;2.73;;
69386;SDS011;56575;48.942;8.404;2023-04-22T08:08:42;3.70;;;2.28;;
69386;SDS011;56575;48.942;8.404;2023-04-22T08:11:08;5.10;;;2.47;;
69386;SDS011;56575;48.942;8.404;2023-04-22T08:13:33;4.77;;;2.47;;
69386;SDS011;56575;48.942;8.404;2023-04-22T08:15:59;3.45;;;2.17;;
69386;SDS011;56575;48.942;8.404;2023-04-22T08:18:27;5.37;;;2.40;;
69386;SDS011;56575;48.942;8.404;2023-04-22T08:20:52;4.13;;;2.35;;
69386;SDS011;56575;48.942;8.404;2023-04-22T08:23:18;4.65;;;2.40;;
69386;SDS011;56575;48.942;8.404;2023-04-22T08:25:44;3.43;;;2.10;;
69386;SDS011;56575;48.942;8.404;2023-04-22T08:28:09;4.43;;;2.50;;
69386;SDS011;56575;48.942;8.404;2023-04-22T08:30:35;3.63;;;2.58;;
69386;SDS011;56575;48.942;8.404;2023-04-22T08:33:01;3.97;;;2.30;;
69386;SDS011;56575;48.942;8.404;2023-04-22T08:35:26;3.60;;;2.30;;
69386;SDS011;56575;48.942;8.404;2023-04-22T08:37:52;3.30;;;2.37;;
69386;SDS011;56575;48.942;8.404;2023-04-22T08:40:17;4.67;;;2.30;;
69386;SDS011;56575;48.942;8.404;2023-04-22T08:42:43;3.35;;;2.20;;
69386;SDS011;56575;48.942;8.404;2023-04-22T08:45:08;3.17;;;1.97;;
69386;SDS011;56575;48.942;8.404;2023-04-22T08:47:34;6.00;;;2.50;;
69386;SDS011;56575;48.942;8.404;2023-04-22T08:50:01;3.33;;;2.00;;
69386;SDS011;56575;48.942;8.404;2023-04-22T08:52:31;3.65;;;2.15;;
69386;SDS011;56575;48.942;8.404;2023-04-22T08:54:57;6.03;;;2.10;;
69386;SDS011;56575;48.942;8.404;2023-04-22T08:57:22;4.68;;;2.05;;
69386;SDS011;56575;48.942;8.404;2023-04-22T08:59:48;3.10;;;2.10;;
69386;SDS011;56575;48.942;8.404;2023-04-22T09:02:18;3.55;;;2.30;;
69386;SDS011;56575;48.942;8.404;2023-04-22T09:04:45;2.58;;;1.98;;
69386;SDS011;56575;48.942;8.404;2023-04-22T09:07:11;3.72;;;2.17;;
69386;SDS011;56575;48.942;8.404;2023-04-22T09:09:54;3.57;;;2.20;;
69386;SDS011;56575;48.942;8.404;2023-04-22T09:12:21;3.55;;;2.25;;
69386;SDS011;56575;48.942;8.404;2023-04-22T09:14:47;3.85;;;2.33;;
69386;SDS011;56575;48.942;8.404;2023-04-22T09:17:15;3.27;;;2.07;;
69386;SDS011;56575;48.942;8.404;2023-04-22T09:19:43;3.65;;;2.20;;
69386;SDS011;56575;48.942;8.404;2023-04-22T09:22:09;3.05;;;1.88;;
69386;SDS011;56575;48.942;8.404;2023-04-22T09:24:43;4.45;;;2.40;;
69386;SDS011;56575;48.942;8.404;2023-04-22T09:27:15;4.90;;;2.43;;
69386;SDS011;56575;48.942;8.404;2023-04-22T09:29:47;2.70;;;2.10;;
69386;SDS011;56575;48.942;8.404;2023-04-22T09:32:14;4.32;;;2.08;;
69386;SDS011;56575;48.942;8.404;2023-04-22T09:34:49;3.03;;;2.00;;
69386;SDS011;56575;48.942;8.404;2023-04-22T09:37:20;7.60;;;2.55;;
69386;SDS011;56575;48.942;8.404;2023-04-22T09:39:49;3.95;;;2.20;;
69386;SDS011;56575;48.942;8.404;2023-04-22T09:42:18;3.47;;;2.10;;
69386;SDS011;56575;48.942;8.404;2023-04-22T09:44:45;5.90;;;2.20;;
69386;SDS011;56575;48.942;8.404;2023-04-22T09:47:12;3.80;;;2.00;;
69386;SDS011;56575;48.942;8.404;2023-04-22T09:49:38;4.90;;;2.30;;
69386;SDS011;56575;48.942;8.404;2023-04-22T09:52:04;4.35;;;2.40;;
69386;SDS011;56575;48.942;8.404;2023-04-22T09:54:30;4.00;;;2.10;;
69386;SDS011;56575;48.942;8.404;2023-04-22T09:56:55;3.23;;;1.90;;
69386;SDS011;56575;48.942;8.404;2023-04-22T09:59:25;4.70;;;2.27;;
69386;SDS011;56575;48.942;8.404;2023-04-22T10:01:57;3.28;;;2.15;;
69386;SDS011;56575;48.942;8.404;2023-04-22T10:04:24;4.38;;;2.05;;
69386;SDS011;56575;48.942;8.404;2023-04-22T10:06:51;4.90;;;2.03;;
69386;SDS011;56575;48.942;8.404;2023-04-22T10:09:18;4.87;;;2.20;;
69386;SDS011;56575;48.942;8.404;2023-04-22T10:11:45;4.72;;;1.80;;
69386;SDS011;56575;48.942;8.404;2023-04-22T10:14:12;3.10;;;1.65;;
69386;SDS011;56575;48.942;8.404;2023-04-22T10:16:42;6.85;;;1.90;;
69386;SDS011;56575;48.942;8.404;2023-04-22T10:19:11;3.05;;;1.60;;
69386;SDS011;56575;48.942;8.404;2023-04-22T10:21:45;5.80;;;1.80;;
69386;SDS011;56575;48.942;8.404;2023-04-22T10:24:18;3.42;;;1.83;;
69386;SDS011;56575;48.942;8.404;2023-04-22T10:26:57;3.83;;;2.30;;
69386;SDS011;56575;48.942;8.404;2023-04-22T10:29:24;3.20;;;2.03;;
69386;SDS011;56575;48.942;8.404;2023-04-22T10:31:53;4.90;;;2.00;;
69386;SDS011;56575;48.942;8.404;2023-04-22T10:34:29;5.10;;;1.97;;
69386;SDS011;56575;48.942;8.404;2023-04-22T10:39:33;4.20;;;1.95;;
69386;SDS011;56575;48.942;8.404;2023-04-22T10:44:28;6.10;;;3.80;;
69386;SDS011;56575;48.942;8.404;2023-04-22T10:47:08;3.67;;;2.05;;
69386;SDS011;56575;48.942;8.404;2023-04-22T10:49:33;4.60;;;2.13;;
69386;SDS011;56575;48.942;8.404;2023-04-22T10:51:59;2.63;;;1.85;;
69386;SDS011;56575;48.942;8.404;2023-04-22T10:57:00;4.38;;;1.80;;
69386;SDS011;56575;48.942;8.404;2023-04-22T10:59:30;2.22;;;1.80;;
69386;SDS011;56575;48.942;8.404;2023-04-22T11:02:00;3.22;;;1.70;;
69386;SDS011;56575;48.942;8.404;2023-04-22T11:04:26;3.63;;;1.80;;
69386;SDS011;56575;48.942;8.404;2023-04-22T11:09:43;2.58;;;1.50;;
69386;SDS011;56575;48.942;8.404;2023-04-22T11:17:33;3.58;;;2.20;;
69386;SDS011;56575;48.942;8.404;2023-04-22T11:19:59;3.60;;;1.77;;
69386;SDS011;56575;48.942;8.404;2023-04-22T11:22:26;4.95;;;1.60;;
69386;SDS011;56575;48.942;8.404;2023-04-22T11:24:55;2.77;;;1.40;;
69386;SDS011;56575;48.942;8.404;2023-04-22T11:27:21;5.05;;;1.63;;
69386;SDS011;56575;48.942;8.404;2023-04-22T11:32:28;5.30;;;1.80;;
69386;SDS011;56575;48.942;8.404;2023-04-22T11:34:55;4.67;;;1.83;;
69386;SDS011;56575;48.942;8.404;2023-04-22T11:37:21;3.72;;;1.77;;
69386;SDS011;56575;48.942;8.404;2023-04-22T11:39:47;3.50;;;1.70;;
69386;SDS011;56575;48.942;8.404;2023-04-22T11:42:14;3.42;;;1.80;;
69386;SDS011;56575;48.942;8.404;2023-04-22T11:44:44;4.43;;;2.17;;
69386;SDS011;56575;48.942;8.404;2023-04-22T11:47:09;5.05;;;1.60;;
69386;SDS011;56575;48.942;8.404;2023-04-22T11:49:37;3.72;;;1.60;;
69386;SDS011;56575;48.942;8.404;2023-04-22T11:52:03;3.38;;;1.70;;
69386;SDS011;56575;48.942;8.404;2023-04-22T11:54:32;2.87;;;1.67;;
69386;SDS011;56575;48.942;8.404;2023-04-22T11:57:04;3.40;;;1.90;;
69386;SDS011;56575;48.942;8.404;2023-04-22T11:59:32;3.55;;;1.77;;
69386;SDS011;56575;48.942;8.404;2023-04-22T12:01:58;4.15;;;1.90;;
69386;SDS011;56575;48.942;8.404;2023-04-22T12:04:24;2.53;;;1.53;;
69386;SDS011;56575;48.942;8.404;2023-04-22T12:06:52;3.63;;;1.90;;
69386;SDS011;56575;48.942;8.404;2023-04-22T12:09:18;3.08;;;1.42;;
69386;SDS011;56575;48.942;8.404;2023-04-22T12:11:43;3.23;;;1.73;;
69386;SDS011;56575;48.942;8.404;2023-04-22T12:14:10;3.55;;;1.48;;
69386;SDS011;56575;48.942;8.404;2023-04-22T12:16:39;2.22;;;1.52;;
69386;SDS011;56575;48.942;8.404;2023-04-22T12:19:05;3.83;;;1.67;;
69386;SDS011;56575;48.942;8.404;2023-04-22T12:21:30;4.03;;;1.50;;
69386;SDS011;56575;48.942;8.404;2023-04-22T12:24:00;4.85;;;1.70;;
69386;SDS011;56575;48.942;8.404;2023-04-22T12:26:30;3.40;;;1.80;;
69386;SDS011;56575;48.942;8.404;2023-04-22T12:28:56;4.10;;;1.70;;
69386;SDS011;56575;48.942;8.404;2023-04-22T12:31:23;3.40;;;1.65;;
69386;SDS011;56575;48.942;8.404;2023-04-22T12:33:49;2.60;;;1.60;;
69386;SDS011;56575;48.942;8.404;2023-04-22T12:36:15;2.90;;;1.80;;
69386;SDS011;56575;48.942;8.404;2023-04-22T12:38:41;3.25;;;1.98;;
69386;SDS011;56575;48.942;8.404;2023-04-22T12:41:06;2.93;;;1.93;;
69386;SDS011;56575;48.942;8.404;2023-04-22T12:43:32;4.77;;;1.90;;
69386;SDS011;56575;48.942;8.404;2023-04-22T12:46:00;3.15;;;1.80;;
69386;SDS011;56575;48.942;8.404;2023-04-22T12:48:26;2.83;;;1.60;;
69386;SDS011;56575;48.942;8.404;2023-04-22T12:50:52;4.43;;;1.77;;
69386;SDS011;56575;48.942;8.404;2023-04-22T12:53:17;4.20;;;1.70;;
69386;SDS011;56575;48.942;8.404;2023-04-22T12:55:45;4.68;;;1.63;;
69386;SDS011;56575;48.942;8.404;2023-04-22T12:58:11;4.72;;;1.90;;
69386;SDS011;56575;48.942;8.404;2023-04-22T13:00:36;2.73;;;1.83;;
69386;SDS011;56575;48.942;8.404;2023-04-22T13:03:01;2.90;;;1.80;;
69386;SDS011;56575;48.942;8.404;2023-04-22T13:05:27;4.90;;;1.83;;
69386;SDS011;56575;48.942;8.404;2023-04-22T13:07:52;4.40;;;1.60;;
69386;SDS011;56575;48.942;8.404;2023-04-22T13:10:18;2.93;;;1.50;;
69386;SDS011;56575;48.942;8.404;2023-04-22T13:12:44;5.20;;;1.70;;
69386;SDS011;56575;48.942;8.404;2023-04-22T13:15:10;2.60;;;1.67;;
69386;SDS011;56575;48.942;8.404;2023-04-22T13:17:36;4.15;;;1.42;;
69386;SDS011;56575;48.942;8.404;2023-04-22T13:20:02;2.75;;;1.73;;
69386;SDS011;56575;48.942;8.404;2023-04-22T13:22:30;2.28;;;1.40;;
69386;SDS011;56575;48.942;8.404;2023-04-22T13:24:55;4.93;;;1.60;;
69386;SDS011;56575;48.942;8.404;2023-04-22T13:27:21;2.93;;;1.60;;
69386;SDS011;56575;48.942;8.404;2023-04-22T13:29:46;3.30;;;1.53;;
69386;SDS011;56575;48.942;8.404;2023-04-22T13:32:11;2.70;;;1.50;;
69386;SDS011;56575;48.942;8.404;2023-04-22T13:34:37;4.63;;;1.50;;
69386;SDS011;56575;48.942;8.404;2023-04-22T13:37:03;3.83;;;1.77;;
69386;SDS011;56575;48.942;8.404;2023-04-22T13:39:30;3.83;;;1.63;;
69386;SDS011;56575;48.942;8.404;2023-04-22T13:41:56;3.17;;;1.67;;
69386;SDS011;56575;48.942;8.404;2023-04-22T13:44:21;3.03;;;1.60;;
69386;SDS011;56575;48.942;8.404;2023-04-22T13:46:47;2.57;;;1.50;;
69386;SDS011;56575;48.942;8.404;2023-04-22T13:49:12;3.30;;;1.50;;
69386;SDS011;56575;48.942;8.404;2023-04-22T13:51:37;4.53;;;2.13;;
69386;SDS011;56575;48.942;8.404;2023-04-22T13:54:03;3.38;;;1.70;;
69386;SDS011;56575;48.942;8.404;2023-04-22T13:56:29;2.70;;;1.50;;
69386;SDS011;56575;48.942;8.404;2023-04-22T13:58:55;2.43;;;1.50;;
69386;SDS011;56575;48.942;8.404;2023-04-22T14:01:20;3.03;;;1.67;;
69386;SDS011;56575;48.942;8.404;2023-04-22T14:03:46;2.40;;;1.50;;
69386;SDS011;56575;48.942;8.404;2023-04-22T14:06:13;3.95;;;1.65;;
69386;SDS011;56575;48.942;8.404;2023-04-22T14:08:39;2.43;;;1.37;;
69386;SDS011;56575;48.942;8.404;2023-04-22T14:11:05;2.00;;;1.30;;
69386;SDS011;56575;48.942;8.404;2023-04-22T14:13:31;2.28;;;1.17;;
69386;SDS011;56575;48.942;8.404;2023-04-22T14:15:57;3.90;;;1.50;;
69386;SDS011;56575;48.942;8.404;2023-04-22T14:18:22;2.87;;;1.50;;
69386;SDS011;56575;48.942;8.404;2023-04-22T14:20:48;2.47;;;1.50;;
69386;SDS011;56575;48.942;8.404;2023-04-22T14:23:14;3.78;;;1.63;;
69386;SDS011;56575;48.942;8.404;2023-04-22T14:25:40;2.53;;;1.37;;
69386;SDS011;56575;48.942;8.404;2023-04-22T14:28:06;3.33;;;1.50;;
69386;SDS011;56575;48.942;8.404;2023-04-22T14:30:32;2.07;;;1.40;;
69386;SDS011;56575;48.942;8.404;2023-04-22T14:32:57;3.37;;;1.47;;
69386;SDS011;56575;48.942;8.404;2023-04-22T14:35:24;2.78;;;1.50;;
69386;SDS011;56575;48.942;8.404;2023-04-22T14:37:49;3.57;;;1.60;;
69386;SDS011;56575;48.942;8.404;2023-04-22T14:40:15;4.57;;;1.50;;
69386;SDS011;56575;48.942;8.404;2023-04-22T14:42:41;4.10;;;1.60;;
69386;SDS011;56575;48.942;8.404;2023-04-22T14:45:06;2.75;;;1.50;;
69386;SDS011;56575;48.942;8.404;2023-04-22T14:47:32;3.93;;;1.60;;
69386;SDS011;56575;48.942;8.404;2023-04-22T14:49:58;2.58;;;1.38;;
69386;SDS011;56575;48.942;8.404;2023-04-22T14:52:23;3.00;;;1.50;;
69386;SDS011;56575;48.942;8.404;2023-04-22T14:54:48;3.27;;;1.70;;
69386;SDS011;56575;48.942;8.404;2023-04-22T14:57:14;6.83;;;2.30;;
69386;SDS011;56575;48.942;8.404;2023-04-22T14:59:39;3.05;;;1.60;;